Time;durP1;ratioP1;P1;durP2;ratioP2;P2;SDS_P1;SDS_P2;PMS_P1;PMS_P2;Temp;Humidity;BMP_temperature;BMP_pressure;BME280_temperature;BME280_humidity;BME280_pressure;Samples;Min_cycle;Max_cycle;Signal;HPM_P1;HPM_P2
2021/01/31 00:00:36;;;;;;;69.07;29.77;;;-5.20;99.90;;;;;;5057264;28;20054;-74
2021/01/31 00:03:05;;;;;;;63.30;28.70;;;-5.10;99.90;;;;;;5027397;28;20041;-74
2021/01/31 00:05:37;;;;;;;78.43;33.03;;;-5.00;99.90;;;;;;5043098;28;20438;-76
2021/01/31 00:08:07;;;;;;;79.07;32.17;;;-4.90;99.90;;;;;;5034651;28;20068;-76
2021/01/31 00:10:34;;;;;;;124.22;38.13;;;-4.80;99.90;;;;;;5034329;28;20484;-74
2021/01/31 00:13:02;;;;;;;145.15;39.50;;;-4.70;99.90;;;;;;5050997;28;20025;-75
2021/01/31 00:15:34;;;;;;;188.20;43.80;;;-4.60;99.90;;;;;;5042768;28;20052;-75
2021/01/31 00:18:02;;;;;;;312.35;52.78;;;-4.50;99.90;;;;;;5042351;28;20036;-77
2021/01/31 00:20:34;;;;;;;352.55;58.33;;;-4.50;99.90;;;;;;5037056;28;20464;-76
2021/01/31 00:23:00;;;;;;;292.98;49.50;;;-4.40;99.90;;;;;;5046414;28;20045;-76
2021/01/31 00:25:26;;;;;;;290.15;49.35;;;-4.40;99.90;;;;;;5037682;28;20040;-75
2021/01/31 00:27:52;;;;;;;;;;;-4.40;99.90;;;;;;5041812;28;20071;-76
2021/01/31 00:30:22;;;;;;;336.80;45.92;;;-4.40;99.90;;;;;;5046519;28;20302;-75
2021/01/31 00:32:49;;;;;;;432.17;64.13;;;-4.40;99.90;;;;;;5042170;28;20060;-75
2021/01/31 00:35:20;;;;;;;373.65;59.17;;;-4.40;99.90;;;;;;5034910;28;20073;-75
2021/01/31 00:37:46;;;;;;;367.27;55.22;;;-4.40;99.90;;;;;;5042089;28;20095;-76
2021/01/31 00:40:12;;;;;;;;;;;-4.40;99.90;;;;;;5037668;28;20041;-75
2021/01/31 00:42:38;;;;;;;344.13;55.77;;;-4.40;99.90;;;;;;5033123;28;19952;-76
2021/01/31 00:45:09;;;;;;;185.60;38.80;;;-4.20;99.90;;;;;;5043276;28;20327;-77
2021/01/31 00:47:35;;;;;;;334.33;51.40;;;-4.40;99.90;;;;;;5039837;28;20041;-76
2021/01/31 00:50:04;;;;;;;357.02;56.67;;;-4.40;99.90;;;;;;5030088;28;20140;-76
2021/01/31 00:52:30;;;;;;;430.98;66.30;;;-4.50;99.90;;;;;;5030939;28;20132;-76
2021/01/31 00:54:56;;;;;;;;;;;-4.50;99.90;;;;;;5043513;28;20545;-76
2021/01/31 00:57:22;;;;;;;344.83;53.35;;;-4.50;99.90;;;;;;5059203;28;19944;-77
2021/01/31 00:59:48;;;;;;;;;;;-4.50;99.90;;;;;;5030064;28;20041;-76
2021/01/31 01:02:21;;;;;;;275.73;50.50;;;-4.50;99.90;;;;;;5043155;28;19932;-76
2021/01/31 01:04:49;;;;;;;287.50;49.47;;;-4.50;99.90;;;;;;5038618;28;20055;-76
2021/01/31 01:07:17;;;;;;;195.00;39.72;;;-4.50;99.90;;;;;;5041709;28;20045;-76
2021/01/31 01:09:43;;;;;;;390.80;55.17;;;-4.60;99.90;;;;;;5047389;28;20044;-76
2021/01/31 01:12:09;;;;;;;425.15;59.97;;;-4.60;99.90;;;;;;5046528;28;20040;-74
2021/01/31 01:14:35;;;;;;;;;;;-4.70;99.90;;;;;;5036544;28;20049;-75
2021/01/31 01:17:03;;;;;;;232.15;39.75;;;-4.70;99.90;;;;;;5031179;28;20354;-75
2021/01/31 01:19:29;;;;;;;348.98;52.58;;;-4.80;99.90;;;;;;5045536;28;20037;-76
2021/01/31 01:21:56;;;;;;;360.33;53.50;;;-4.80;99.90;;;;;;5035729;28;20099;-76
2021/01/31 01:24:22;;;;;;;300.75;40.97;;;-4.80;99.90;;;;;;5048664;28;20044;-75
2021/01/31 01:26:48;;;;;;;;;;;-4.90;99.90;;;;;;5039094;28;20120;-75
2021/01/31 01:29:14;;;;;;;372.10;52.10;;;-4.90;99.90;;;;;;5041636;28;19917;-76
2021/01/31 01:31:40;;;;;;;385.10;61.03;;;-4.90;99.90;;;;;;5045265;28;20041;-76
2021/01/31 01:34:06;;;;;;;;;;;-4.90;99.90;;;;;;5049153;28;20034;-77
2021/01/31 01:36:33;;;;;;;228.38;40.33;;;-5.00;99.90;;;;;;5044027;28;20214;-75
2021/01/31 01:38:59;;;;;;;147.15;32.63;;;-5.00;99.90;;;;;;5048234;28;20075;-75
2021/01/31 01:41:25;;;;;;;189.90;36.05;;;-4.90;99.90;;;;;;5042262;28;20212;-75
2021/01/31 01:43:51;;;;;;;;;;;-5.00;99.90;;;;;;5042827;28;20040;-76
2021/01/31 01:46:17;;;;;;;236.30;41.13;;;-5.10;99.90;;;;;;5035917;28;19939;-76
2021/01/31 01:48:44;;;;;;;;;;;-5.10;99.90;;;;;;5039517;28;20041;-76
2021/01/31 01:51:10;;;;;;;188.48;34.33;;;-5.10;99.90;;;;;;5043867;28;19925;-76
2021/01/31 01:53:37;;;;;;;;;;;-5.10;99.90;;;;;;5049423;28;20048;-76
2021/01/31 01:56:13;;;;;;;210.57;30.13;;;-5.10;99.90;;;;;;5046629;28;19960;-76
2021/01/31 01:58:40;;;;;;;226.75;39.38;;;-5.10;99.90;;;;;;5045941;28;20093;-73
2021/01/31 02:01:07;;;;;;;337.15;51.80;;;-5.20;99.90;;;;;;5065838;28;20452;-73
2021/01/31 02:03:37;;;;;;;238.98;40.80;;;-5.20;99.90;;;;;;5038154;28;20439;-74
2021/01/31 02:06:20;;;;;;;290.70;38.28;;;-5.30;99.90;;;;;;5041086;28;20332;-74
2021/01/31 02:08:46;;;;;;;144.98;32.90;;;-5.30;99.90;;;;;;5050230;28;20083;-74
2021/01/31 02:11:13;;;;;;;86.10;26.73;;;-5.40;99.90;;;;;;5063577;28;20041;-76
2021/01/31 02:13:45;;;;;;;195.77;35.00;;;-5.40;99.90;;;;;;5035869;28;20124;-75
2021/01/31 02:16:22;;;;;;;222.57;39.47;;;-5.50;99.90;;;;;;5040889;28;20044;-75
2021/01/31 02:19:11;;;;;;;106.95;27.13;;;-5.60;99.90;;;;;;5039321;28;20033;-75
2021/01/31 02:21:57;;;;;;;119.93;31.65;;;-5.60;99.90;;;;;;5051868;28;20061;-75
2021/01/31 02:24:57;;;;;;;114.33;29.47;;;-5.60;99.90;;;;;;5040334;28;20501;-75
2021/01/31 02:27:58;;;;;;;257.95;48.70;;;-5.70;99.90;;;;;;5041270;28;20516;-75
2021/01/31 02:30:48;;;;;;;126.22;29.77;;;-5.70;99.90;;;;;;5031227;28;20139;-75
2021/01/31 02:33:39;;;;;;;126.55;33.60;;;-5.70;99.90;;;;;;5040706;28;20041;-73
2021/01/31 02:36:31;;;;;;;103.53;33.70;;;-5.70;99.90;;;;;;5035526;28;20358;-74
2021/01/31 02:39:13;;;;;;;111.55;33.20;;;-5.70;99.90;;;;;;5035356;28;20072;-74
2021/01/31 02:41:52;;;;;;;151.40;34.08;;;-5.70;99.90;;;;;;5052292;28;20033;-74
2021/01/31 02:44:23;;;;;;;243.77;47.55;;;-5.70;99.90;;;;;;5035401;28;20120;-75
2021/01/31 02:46:58;;;;;;;187.73;37.20;;;-5.70;99.90;;;;;;5035622;28;20187;-75
2021/01/31 02:49:32;;;;;;;116.90;31.15;;;-5.70;99.90;;;;;;5046433;28;20036;-75
2021/01/31 02:52:23;;;;;;;154.20;36.60;;;-5.70;99.90;;;;;;5044431;28;20038;-75
2021/01/31 02:55:19;;;;;;;184.57;36.40;;;-5.70;99.90;;;;;;5036295;28;20034;-76
2021/01/31 02:57:56;;;;;;;142.05;32.75;;;-5.70;99.90;;;;;;5046423;28;20077;-75
2021/01/31 03:00:26;;;;;;;115.00;31.15;;;-5.70;99.90;;;;;;5044068;28;20048;-74
2021/01/31 03:03:07;;;;;;;72.50;26.27;;;-5.70;99.90;;;;;;5037093;28;20037;-74
2021/01/31 03:05:38;;;;;;;94.88;27.33;;;-5.80;99.90;;;;;;5038049;28;20076;-74
2021/01/31 03:08:10;;;;;;;132.10;29.65;;;-5.80;99.90;;;;;;5050670;28;20366;-75
2021/01/31 03:10:46;;;;;;;140.50;30.35;;;-5.90;99.90;;;;;;5041798;28;20386;-74
2021/01/31 03:13:35;;;;;;;133.60;30.23;;;-6.00;99.90;;;;;;5035784;28;20052;-76
2021/01/31 03:16:16;;;;;;;131.45;32.58;;;-6.00;99.90;;;;;;5033648;28;20045;-74
2021/01/31 03:19:06;;;;;;;130.05;29.90;;;-6.00;99.90;;;;;;5059246;28;20041;-74
2021/01/31 03:21:34;;;;;;;143.68;31.38;;;-6.10;99.90;;;;;;5046768;28;20107;-76
2021/01/31 03:24:12;;;;;;;189.82;35.67;;;-6.10;99.90;;;;;;5061241;28;20035;-75
2021/01/31 03:26:44;;;;;;;162.82;35.30;;;-6.10;99.90;;;;;;5064944;28;20029;-74
2021/01/31 03:29:09;;;;;;;72.88;23.55;;;-6.20;99.90;;;;;;5061938;28;20037;-75
2021/01/31 03:31:38;;;;;;;;;;;-6.20;99.90;;;;;;5045300;28;20481;-74
2021/01/31 03:34:14;;;;;;;48.72;20.17;;;-6.30;99.90;;;;;;5039909;28;19967;-74
2021/01/31 03:36:46;;;;;;;55.78;24.15;;;-6.30;99.90;;;;;;5048776;28;20036;-75
2021/01/31 03:39:14;;;;;;;67.68;25.40;;;-6.30;99.90;;;;;;5041399;28;20144;-76
2021/01/31 03:41:40;;;;;;;65.50;26.05;;;-6.40;99.90;;;;;;5051445;28;20052;-75
2021/01/31 03:44:06;;;;;;;57.78;24.17;;;-6.40;99.90;;;;;;5042566;28;20041;-74
2021/01/31 03:46:36;;;;;;;;;;;-6.40;99.90;;;;;;5032585;28;20075;-76
2021/01/31 03:49:11;;;;;;;54.92;22.30;;;-6.50;99.90;;;;;;5042455;28;19931;-74
2021/01/31 03:51:37;;;;;;;44.38;20.95;;;-6.50;99.90;;;;;;5045668;28;20037;-75
2021/01/31 03:54:07;;;;;;;53.47;21.48;;;-6.50;99.90;;;;;;5042896;28;20069;-74
2021/01/31 03:56:43;;;;;;;48.63;20.15;;;-6.50;99.90;;;;;;5048334;28;20037;-76
2021/01/31 03:59:09;;;;;;;44.90;18.30;;;-6.50;99.90;;;;;;5047605;28;20037;-73
2021/01/31 04:01:38;;;;;;;38.65;17.45;;;-6.50;99.90;;;;;;5054351;28;20037;-73
2021/01/31 04:04:36;;;;;;;54.50;19.23;;;-6.60;99.90;;;;;;5043185;28;20064;-73
2021/01/31 04:07:04;;;;;;;57.50;19.42;;;-6.60;99.90;;;;;;5043063;28;20052;-75
2021/01/31 04:09:33;;;;;;;45.90;20.08;;;-6.70;99.90;;;;;;5043276;28;20389;-75
2021/01/31 04:12:05;;;;;;;40.03;17.55;;;-6.70;99.90;;;;;;5042856;28;20129;-75
2021/01/31 04:14:40;;;;;;;36.05;17.88;;;-6.80;99.90;;;;;;5040362;28;20053;-74
2021/01/31 04:17:06;;;;;;;39.45;17.60;;;-6.90;99.90;;;;;;5042952;28;20034;-74
2021/01/31 04:19:32;;;;;;;;;;;-6.90;99.90;;;;;;5059556;28;20095;-74
2021/01/31 04:21:58;;;;;;;38.10;16.80;;;-6.90;99.90;;;;;;5047735;28;19947;-74
2021/01/31 04:24:23;;;;;;;;;;;-7.00;99.90;;;;;;5055093;28;20049;-74
2021/01/31 04:26:49;;;;;;;41.13;17.35;;;-7.00;99.90;;;;;;5040836;28;19916;-74
2021/01/31 04:29:15;;;;;;;;;;;-7.00;99.90;;;;;;5030415;28;20037;-73
2021/01/31 04:31:41;;;;;;;41.00;17.67;;;-7.10;99.90;;;;;;5039204;28;20357;-74
2021/01/31 04:34:06;;;;;;;;;;;-7.10;99.90;;;;;;5043198;28;20034;-73
2021/01/31 04:36:32;;;;;;;41.38;19.30;;;-7.10;99.90;;;;;;5046117;28;19924;-73
2021/01/31 04:38:58;;;;;;;;;;;-7.10;99.90;;;;;;5050585;28;20041;-73
2021/01/31 04:41:31;;;;;;;42.97;19.65;;;-7.20;99.90;;;;;;5034853;28;19921;-74
2021/01/31 04:43:57;;;;;;;54.85;22.63;;;-7.20;99.90;;;;;;5037634;28;20040;-73
2021/01/31 04:46:24;;;;;;;;;;;-7.20;99.90;;;;;;5036283;28;20040;-74
2021/01/31 04:49:27;;;;;;;46.15;20.88;;;-7.10;99.90;;;;;;5050679;28;20277;-73
2021/01/31 04:52:29;;;;;;;45.97;20.42;;;-7.10;99.90;;;;;;5046546;28;20068;-74
2021/01/31 04:54:56;;;;;;;41.00;19.40;;;-7.10;99.90;;;;;;5043333;28;20045;-75
2021/01/31 04:57:21;;;;;;;;;;;-7.10;99.90;;;;;;5038490;28;20038;-73
2021/01/31 04:59:49;;;;;;;41.40;18.92;;;-7.10;99.90;;;;;;5045961;28;20257;-73
2021/01/31 05:02:24;;;;;;;42.00;19.75;;;-7.10;99.90;;;;;;5040273;28;20413;-74
2021/01/31 05:04:58;;;;;;;48.72;20.10;;;-7.10;99.90;;;;;;5048494;28;20072;-73
2021/01/31 05:07:52;;;;;;;48.00;20.42;;;-7.10;99.90;;;;;;5047731;28;20119;-73
2021/01/31 05:10:18;;;;;;;46.75;20.40;;;-7.10;99.90;;;;;;5036919;28;20041;-73
2021/01/31 05:12:47;;;;;;;49.83;19.95;;;-7.10;99.90;;;;;;5046009;28;20053;-74
2021/01/31 05:15:24;;;;;;;42.20;19.15;;;-7.20;99.90;;;;;;5048689;28;20067;-74
2021/01/31 05:17:53;;;;;;;40.95;18.85;;;-7.20;99.90;;;;;;5041611;28;20109;-74
2021/01/31 05:20:22;;;;;;;36.80;19.38;;;-7.20;99.90;;;;;;5041878;28;20045;-74
2021/01/31 05:22:52;;;;;;;42.85;19.77;;;-7.20;99.90;;;;;;5030561;28;20065;-75
2021/01/31 05:25:20;;;;;;;45.65;22.35;;;-7.10;99.90;;;;;;5043314;28;20056;-75
2021/01/31 05:27:49;;;;;;;45.58;20.38;;;-7.10;99.90;;;;;;5042909;28;20043;-74
2021/01/31 05:30:16;;;;;;;46.47;21.83;;;-7.10;99.90;;;;;;5046149;28;20040;-74
2021/01/31 05:33:00;;;;;;;46.85;22.45;;;-7.10;99.90;;;;;;5040064;28;20547;-74
2021/01/31 05:35:28;;;;;;;43.75;21.27;;;-7.10;99.90;;;;;;5048404;28;20474;-74
2021/01/31 05:37:53;;;;;;;37.40;19.02;;;-7.20;99.90;;;;;;5034045;28;20103;-74
2021/01/31 05:40:46;;;;;;;;;;;-7.20;99.90;;;;;;5048321;28;20045;-73
2021/01/31 05:43:22;;;;;;;37.78;19.33;;;-7.20;99.90;;;;;;5029618;28;20015;-73
2021/01/31 05:45:49;;;;;;;35.83;18.92;;;-7.30;99.90;;;;;;5045551;28;20049;-73
2021/01/31 05:48:24;;;;;;;41.55;18.45;;;-7.30;99.90;;;;;;5038271;28;20049;-74
2021/01/31 05:50:52;;;;;;;35.50;17.95;;;-7.30;99.90;;;;;;5036613;28;20049;-73
2021/01/31 05:53:33;;;;;;;38.70;19.88;;;-7.30;99.90;;;;;;5038209;28;20045;-73
2021/01/31 05:56:23;;;;;;;47.92;20.77;;;-7.30;99.90;;;;;;5044899;28;20124;-73
2021/01/31 05:58:51;;;;;;;43.10;20.98;;;-7.30;99.90;;;;;;5039555;28;20108;-72
2021/01/31 06:01:17;;;;;;;37.35;18.75;;;-7.20;99.90;;;;;;5039966;28;20433;-72
2021/01/31 06:03:42;;;;;;;;;;;-7.20;99.90;;;;;;5045388;28;20041;-73
2021/01/31 06:06:20;;;;;;;45.95;19.52;;;-7.20;99.90;;;;;;5043166;28;19917;-72
2021/01/31 06:08:48;;;;;;;38.63;17.23;;;-7.20;99.90;;;;;;5049246;28;20043;-73
2021/01/31 06:11:23;;;;;;;40.58;18.48;;;-7.10;99.90;;;;;;5040435;28;20052;-73
2021/01/31 06:14:09;;;;;;;37.55;17.67;;;-7.00;99.90;;;;;;5049652;28;20098;-73
2021/01/31 06:16:36;;;;;;;38.57;17.20;;;-6.90;99.90;;;;;;5043983;28;20045;-73
2021/01/31 06:19:09;;;;;;;42.15;19.42;;;-6.90;99.90;;;;;;5052980;28;20040;-75
2021/01/31 06:21:43;;;;;;;40.97;18.83;;;-6.90;99.90;;;;;;5049494;28;20590;-74
2021/01/31 06:24:28;;;;;;;41.72;18.25;;;-6.80;99.90;;;;;;5039699;28;20048;-72
2021/01/31 06:26:59;;;;;;;39.15;18.85;;;-6.80;99.90;;;;;;5051596;28;20485;-73
2021/01/31 06:29:43;;;;;;;37.35;17.83;;;-6.90;99.90;;;;;;5040056;28;20041;-74
2021/01/31 06:32:19;;;;;;;35.53;17.33;;;-6.90;99.90;;;;;;5039301;28;20036;-74
2021/01/31 06:34:53;;;;;;;;;;;-6.90;99.90;;;;;;5048571;28;20112;-74
2021/01/31 06:37:45;;;;;;;43.20;19.60;;;-7.00;99.90;;;;;;5035371;28;20396;-74
2021/01/31 06:40:38;;;;;;;37.70;17.48;;;-7.00;99.90;;;;;;5040411;28;20474;-73
2021/01/31 06:43:21;;;;;;;40.33;18.42;;;-7.10;99.90;;;;;;5032608;28;20041;-72
2021/01/31 06:46:09;;;;;;;42.45;19.52;;;-7.10;99.90;;;;;;5042557;28;20117;-73
2021/01/31 06:49:10;;;;;;;37.80;18.40;;;-7.20;99.90;;;;;;5046232;28;20033;-74
2021/01/31 06:52:20;;;;;;;38.40;19.05;;;-7.20;99.90;;;;;;5049775;28;20037;-73
2021/01/31 06:55:16;;;;;;;38.50;19.00;;;-7.20;99.90;;;;;;5061294;28;20447;-73
2021/01/31 06:58:25;;;;;;;34.23;16.83;;;-7.20;99.90;;;;;;5050811;28;20498;-73
2021/01/31 07:01:12;;;;;;;38.88;18.85;;;-7.20;99.90;;;;;;5035739;28;20295;-73
2021/01/31 07:04:08;;;;;;;38.50;19.73;;;-7.20;99.90;;;;;;5039869;28;20037;-75
2021/01/31 07:06:58;;;;;;;32.97;17.27;;;-7.20;99.90;;;;;;5038347;28;20049;-75
2021/01/31 07:09:36;;;;;;;38.97;17.98;;;-7.20;99.90;;;;;;5047979;28;20345;-74
2021/01/31 07:12:28;;;;;;;32.00;15.45;;;-7.20;99.90;;;;;;5050884;28;20109;-73
2021/01/31 07:15:04;;;;;;;35.92;17.27;;;-7.30;99.90;;;;;;5042111;28;20386;-74
2021/01/31 07:17:39;;;;;;;31.67;15.70;;;-7.30;99.90;;;;;;5047016;28;20492;-73
2021/01/31 07:20:46;;;;;;;35.25;17.63;;;-7.40;99.90;;;;;;5041046;28;20033;-74
2021/01/31 07:23:18;;;;;;;35.15;18.17;;;-7.30;99.90;;;;;;5014036;28;20048;-75
2021/01/31 07:26:09;;;;;;;32.05;15.95;;;-7.40;99.90;;;;;;5076468;28;20049;-74
2021/01/31 07:28:42;;;;;;;33.92;15.30;;;-7.40;99.90;;;;;;5041720;28;20583;-74
2021/01/31 07:31:10;;;;;;;38.05;17.20;;;-7.40;99.90;;;;;;5049116;28;20036;-73
2021/01/31 07:34:11;;;;;;;34.47;17.58;;;-7.40;99.90;;;;;;5043945;28;20037;-75
2021/01/31 07:37:14;;;;;;;34.45;17.90;;;-7.40;99.90;;;;;;5049728;28;20435;-75
2021/01/31 07:39:59;;;;;;;37.40;18.08;;;-7.40;99.90;;;;;;5031435;28;20132;-75
2021/01/31 07:42:27;;;;;;;37.17;18.35;;;-7.40;99.90;;;;;;5046151;28;20060;-75
2021/01/31 07:45:13;;;;;;;38.58;17.88;;;-7.40;99.90;;;;;;5043045;28;20064;-75
2021/01/31 07:47:39;;;;;;;39.00;17.67;;;-7.40;99.90;;;;;;5055130;28;20037;-76
2021/01/31 07:50:05;;;;;;;41.15;20.58;;;-7.30;99.90;;;;;;5042382;28;20064;-75
2021/01/31 07:52:52;;;;;;;;;;;-7.30;99.90;;;;;;5049473;28;20064;-74
2021/01/31 07:55:36;;;;;;;43.27;19.10;;;-7.30;99.90;;;;;;5058063;28;19928;-74
2021/01/31 07:58:06;;;;;;;36.78;18.83;;;-7.30;99.90;;;;;;5048288;28;20123;-75
2021/01/31 08:00:41;;;;;;;43.72;21.13;;;-7.20;99.90;;;;;;5046159;28;20036;-73
2021/01/31 08:03:37;;;;;;;39.67;19.90;;;-7.20;99.90;;;;;;5040611;28;20446;-73
2021/01/31 08:06:08;;;;;;;42.00;21.13;;;-7.10;99.90;;;;;;5042987;28;20064;-73
2021/01/31 08:08:41;;;;;;;37.28;20.17;;;-7.10;99.90;;;;;;5039148;28;20045;-74
2021/01/31 08:11:18;;;;;;;41.90;19.80;;;-7.00;99.90;;;;;;5038773;28;20033;-75
2021/01/31 08:13:46;;;;;;;35.88;18.40;;;-6.90;99.90;;;;;;5047746;28;20075;-71
2021/01/31 08:16:43;;;;;;;34.53;17.45;;;-6.90;99.90;;;;;;5043912;28;20041;-73
2021/01/31 08:19:16;;;;;;;38.15;18.35;;;-6.80;99.90;;;;;;5041213;28;20478;-74
2021/01/31 08:22:03;;;;;;;38.38;18.65;;;-6.80;99.90;;;;;;5045355;28;20040;-73
2021/01/31 08:24:48;;;;;;;;;;;-6.70;99.90;;;;;;5040468;28;20513;-74
2021/01/31 08:27:19;;;;;;;38.70;19.95;;;-6.60;99.90;;;;;;5049382;28;19917;-73
2021/01/31 08:29:44;;;;;;;47.45;21.90;;;-6.50;99.90;;;;;;5041569;28;20025;-73
2021/01/31 08:32:11;;;;;;;;;;;-6.40;99.90;;;;;;5057477;28;20532;-72
2021/01/31 08:35:10;;;;;;;43.95;19.75;;;-6.30;99.90;;;;;;5043657;28;19999;-73
2021/01/31 08:37:36;;;;;;;45.60;21.58;;;-6.20;99.90;;;;;;5043639;28;20115;-73
2021/01/31 08:40:15;;;;;;;45.42;22.33;;;-6.10;99.90;;;;;;5060679;28;20090;-73
2021/01/31 08:42:50;;;;;;;46.83;21.27;;;-6.00;99.90;;;;;;5043321;28;20077;-73
2021/01/31 08:45:16;;;;;;;52.67;24.92;;;-5.90;99.90;;;;;;5039204;28;20049;-73
2021/01/31 08:47:42;;;;;;;;;;;-5.80;99.90;;;;;;5043930;28;20116;-74
2021/01/31 08:50:15;;;;;;;55.08;25.85;;;-5.80;99.90;;;;;;5044985;28;19923;-72
2021/01/31 08:52:44;;;;;;;60.28;28.52;;;-5.60;99.90;;;;;;5047787;28;20120;-74
2021/01/31 08:55:10;;;;;;;57.80;28.48;;;-5.50;99.90;;;;;;5047959;28;20041;-74
2021/01/31 08:57:35;;;;;;;;;;;-5.40;99.90;;;;;;5041536;28;20083;-75
2021/01/31 09:00:11;;;;;;;57.90;28.13;;;-5.30;99.90;;;;;;5046450;28;19939;-75
2021/01/31 09:02:41;;;;;;;64.93;30.52;;;-5.20;99.90;;;;;;5047736;28;20374;-77
2021/01/31 09:05:12;;;;;;;63.63;31.67;;;-5.00;99.90;;;;;;5056317;28;20033;-75
2021/01/31 09:07:46;;;;;;;71.85;32.72;;;-4.90;99.90;;;;;;5037704;28;20045;-73
2021/01/31 09:10:35;;;;;;;69.15;34.67;;;-4.80;99.90;;;;;;5038629;28;20037;-76
2021/01/31 09:13:27;;;;;;;67.93;34.50;;;-4.60;99.90;;;;;;5039601;28;20025;-74
2021/01/31 09:16:08;;;;;;;67.90;32.35;;;-4.50;99.90;;;;;;5035282;28;20049;-74
2021/01/31 09:18:34;;;;;;;65.70;34.28;;;-4.40;99.90;;;;;;5045225;28;20045;-74
2021/01/31 09:21:16;;;;;;;;;;;-4.20;99.90;;;;;;5041381;28;20040;-74
2021/01/31 09:23:42;;;;;;;64.43;32.05;;;-4.10;99.90;;;;;;5031942;28;19924;-75
2021/01/31 09:26:08;;;;;;;;;;;-3.90;99.90;;;;;;5045275;28;20437;-74
2021/01/31 09:28:39;;;;;;;58.97;29.73;;;-3.70;99.90;;;;;;5041729;28;20435;-74
2021/01/31 09:31:06;;;;;;;56.08;29.88;;;-3.60;99.90;;;;;;5035255;28;20029;-75
2021/01/31 09:33:40;;;;;;;58.05;32.28;;;-3.40;99.90;;;;;;5048618;28;20063;-73
2021/01/31 09:36:26;;;;;;;57.53;31.40;;;-3.30;99.90;;;;;;5043511;28;20037;-75
2021/01/31 09:38:53;;;;;;;53.38;28.25;;;-3.20;99.90;;;;;;5039147;28;20045;-74
2021/01/31 09:41:22;;;;;;;50.90;25.88;;;-3.10;99.90;;;;;;5045539;28;20052;-75
2021/01/31 09:43:53;;;;;;;44.70;22.98;;;-3.00;99.90;;;;;;5046825;28;20461;-75
2021/01/31 09:46:24;;;;;;;31.83;17.77;;;-2.80;99.90;;;;;;5045184;28;20045;-76
2021/01/31 09:49:04;;;;;;;34.35;19.77;;;-2.70;99.90;;;;;;5047918;28;20067;-74
2021/01/31 09:51:31;;;;;;;29.35;18.00;;;-2.60;99.90;;;;;;5044685;28;20134;-74
2021/01/31 09:54:12;;;;;;;29.02;15.55;;;-2.50;99.90;;;;;;5046267;28;20065;-74
2021/01/31 09:56:52;;;;;;;23.50;13.63;;;-2.30;99.90;;;;;;5064945;28;20044;-74
2021/01/31 09:59:21;;;;;;;31.08;16.45;;;-2.30;99.90;;;;;;5044192;28;20075;-76
2021/01/31 10:01:48;;;;;;;36.28;18.27;;;-2.20;99.90;;;;;;5046387;28;20033;-75
2021/01/31 10:04:20;;;;;;;32.17;18.23;;;-2.10;99.90;;;;;;5050904;28;20041;-74
2021/01/31 10:06:48;;;;;;;29.50;16.23;;;-2.00;99.90;;;;;;5043092;28;20044;-75
2021/01/31 10:09:27;;;;;;;21.08;13.15;;;-1.80;99.90;;;;;;5041023;28;20107;-73
2021/01/31 10:12:15;;;;;;;21.52;13.00;;;-1.80;99.90;;;;;;5036462;28;20108;-74
2021/01/31 10:14:45;;;;;;;21.88;12.98;;;-1.80;99.90;;;;;;5043367;28;20067;-74
2021/01/31 10:17:34;;;;;;;25.05;14.75;;;-1.80;99.90;;;;;;5050092;28;20045;-73
2021/01/31 10:20:35;;;;;;;17.70;11.32;;;-1.70;99.90;;;;;;5041963;28;20057;-74
2021/01/31 10:23:16;;;;;;;22.25;12.95;;;-1.70;99.90;;;;;;5047925;28;20194;-74
2021/01/31 10:25:56;;;;;;;25.45;12.65;;;-1.60;99.90;;;;;;5052464;28;20045;-74
2021/01/31 10:28:34;;;;;;;20.65;11.35;;;-1.60;99.90;;;;;;5050179;28;20033;-75
2021/01/31 10:31:00;;;;;;;22.70;13.35;;;-1.50;99.90;;;;;;5051063;28;20048;-74
2021/01/31 10:33:50;;;;;;;18.17;10.48;;;-1.50;99.90;;;;;;5052348;28;20389;-75
2021/01/31 10:36:26;;;;;;;19.52;12.15;;;-1.40;99.90;;;;;;5049124;28;20515;-74
2021/01/31 10:39:00;;;;;;;22.50;12.95;;;-1.40;99.90;;;;;;5044156;28;20033;-75
2021/01/31 10:41:26;;;;;;;19.20;11.65;;;-1.30;99.90;;;;;;5051932;28;20374;-74
2021/01/31 10:44:00;;;;;;;17.15;11.35;;;-1.30;99.90;;;;;;5051127;28;20040;-74
2021/01/31 10:46:26;;;;;;;22.08;12.50;;;-1.30;99.90;;;;;;5054036;28;20045;-76
2021/01/31 10:48:52;;;;;;;21.05;12.98;;;-1.20;99.90;;;;;;5040552;28;20037;-75
2021/01/31 10:51:18;;;;;;;22.02;11.82;;;-1.10;99.90;;;;;;5045720;28;20366;-75
2021/01/31 10:53:44;;;;;;;21.95;13.25;;;-1.10;99.90;;;;;;5049143;28;20033;-75
2021/01/31 10:56:09;;;;;;;19.13;11.25;;;-1.10;99.90;;;;;;5052081;28;20073;-75
2021/01/31 10:58:35;;;;;;;22.35;10.48;;;-1.10;99.90;;;;;;5067426;28;20041;-76
2021/01/31 11:01:01;;;;;;;18.52;11.15;;;-1.10;99.90;;;;;;5045383;28;20045;-76
2021/01/31 11:03:27;;;;;;;21.02;12.02;;;-1.00;99.90;;;;;;5041310;28;20047;-75
2021/01/31 11:05:53;;;;;;;20.30;11.50;;;-0.80;99.90;;;;;;5064562;28;20041;-76
2021/01/31 11:08:21;;;;;;;20.10;10.70;;;-0.80;99.90;;;;;;5053317;28;20248;-75
2021/01/31 11:10:48;;;;;;;18.23;10.30;;;-0.80;99.90;;;;;;5039178;28;20120;-74
2021/01/31 11:13:14;;;;;;;17.67;10.20;;;-0.80;99.90;;;;;;5050901;28;20037;-75
2021/01/31 11:15:40;;;;;;;;;;;-0.70;99.90;;;;;;5045242;28;20050;-74
2021/01/31 11:18:06;;;;;;;19.80;10.40;;;-0.70;99.90;;;;;;5051476;28;20361;-75
2021/01/31 11:20:32;;;;;;;17.17;9.85;;;-0.70;99.90;;;;;;5033250;28;20087;-75
2021/01/31 11:22:58;;;;;;;19.17;10.93;;;-0.70;99.90;;;;;;5065481;28;20078;-76
2021/01/31 11:25:23;;;;;;;19.60;10.43;;;-0.60;99.90;;;;;;5049101;28;20041;-75
2021/01/31 11:27:49;;;;;;;20.60;11.23;;;-0.60;99.90;;;;;;5061783;28;20454;-74
2021/01/31 11:30:15;;;;;;;24.48;11.45;;;-0.50;99.90;;;;;;5051745;28;20116;-75
2021/01/31 11:32:41;;;;;;;;;;;-0.40;99.90;;;;;;5062903;28;20478;-75
2021/01/31 11:35:07;;;;;;;21.10;11.20;;;-0.40;99.90;;;;;;5051046;28;19924;-75
2021/01/31 11:37:33;;;;;;;;;;;-0.40;99.90;;;;;;5049556;28;20048;-75
2021/01/31 11:39:59;;;;;;;16.08;10.43;;;-0.40;99.90;;;;;;5051655;28;19978;-74
2021/01/31 11:42:25;;;;;;;19.42;10.93;;;-0.10;99.90;;;;;;5037426;28;20033;-75
2021/01/31 11:44:50;;;;;;;19.58;11.50;;;-0.30;99.90;;;;;;5051540;28;20033;-74
2021/01/31 11:47:16;;;;;;;23.05;11.35;;;-0.20;99.90;;;;;;5051262;28;20037;-75
2021/01/31 11:49:42;;;;;;;18.05;10.95;;;-0.20;99.90;;;;;;5043574;28;20054;-75
2021/01/31 11:52:08;;;;;;;16.25;10.40;;;-0.40;99.90;;;;;;5043088;28;20037;-74
2021/01/31 11:54:34;;;;;;;14.68;9.50;;;0.00;99.90;;;;;;5043280;28;20040;-74
2021/01/31 11:57:00;;;;;;;15.45;9.85;;;0.10;99.90;;;;;;5043238;28;20041;-76
2021/01/31 11:59:26;;;;;;;12.35;8.50;;;0.10;99.90;;;;;;5059749;28;20090;-76
2021/01/31 12:01:51;;;;;;;17.55;9.35;;;0.30;99.90;;;;;;5042457;28;20128;-76
2021/01/31 12:04:18;;;;;;;14.25;8.88;;;0.20;99.90;;;;;;5066149;28;20397;-75
2021/01/31 12:06:43;;;;;;;18.45;10.00;;;0.40;99.90;;;;;;5048380;28;20127;-75
2021/01/31 12:09:09;;;;;;;15.98;10.10;;;0.20;99.90;;;;;;5048257;28;20033;-74
2021/01/31 12:11:36;;;;;;;;;;;0.30;99.90;;;;;;5038246;28;20401;-75
2021/01/31 12:14:02;;;;;;;15.52;10.55;;;0.30;99.90;;;;;;5048532;28;19924;-75
2021/01/31 12:16:28;;;;;;;;;;;0.30;99.90;;;;;;5047419;28;20037;-75
2021/01/31 12:18:53;;;;;;;18.15;10.38;;;0.30;99.90;;;;;;5046994;28;19920;-76
2021/01/31 12:21:19;;;;;;;17.40;9.88;;;0.30;99.90;;;;;;5041386;28;20045;-76
2021/01/31 12:23:45;;;;;;;18.70;12.05;;;0.40;99.90;;;;;;5056305;28;20389;-76
2021/01/31 12:26:11;;;;;;;17.90;9.98;;;0.40;99.90;;;;;;5039791;28;20184;-76
2021/01/31 12:28:37;;;;;;;21.83;11.15;;;0.50;99.90;;;;;;5039728;28;20063;-76
2021/01/31 12:31:03;;;;;;;20.77;11.50;;;0.60;99.90;;;;;;5039686;28;20112;-77
2021/01/31 12:33:29;;;;;;;16.83;10.10;;;0.70;99.90;;;;;;5047658;28;20110;-76
2021/01/31 12:35:55;;;;;;;20.02;11.50;;;0.80;99.90;;;;;;5063676;28;20037;-76
2021/01/31 12:38:21;;;;;;;14.07;10.10;;;0.90;99.90;;;;;;5044043;28;20496;-76
2021/01/31 12:40:47;;;;;;;17.08;9.38;;;0.90;99.90;;;;;;5040393;28;20212;-77
2021/01/31 12:43:13;;;;;;;17.88;10.68;;;0.90;99.90;;;;;;5065499;28;20052;-75
2021/01/31 12:45:38;;;;;;;17.42;10.05;;;0.90;99.90;;;;;;5046056;28;20132;-77
2021/01/31 12:48:04;;;;;;;15.73;9.88;;;1.10;99.90;;;;;;5032252;28;20482;-76
2021/01/31 12:50:31;;;;;;;16.25;8.60;;;1.00;99.90;;;;;;5038836;28;20041;-76
2021/01/31 12:52:57;;;;;;;15.48;9.30;;;1.00;99.90;;;;;;5020997;28;20063;-77
2021/01/31 12:55:24;;;;;;;16.08;10.40;;;1.10;99.90;;;;;;5040727;28;20045;-76
2021/01/31 12:57:50;;;;;;;13.98;8.57;;;1.10;99.90;;;;;;5034304;28;20037;-77
2021/01/31 13:00:19;;;;;;;14.35;9.07;;;1.10;99.90;;;;;;5042355;28;20431;-76
2021/01/31 13:02:45;;;;;;;14.77;8.98;;;1.10;99.90;;;;;;5035673;28;20049;-77
2021/01/31 13:05:13;;;;;;;15.55;9.07;;;1.10;99.90;;;;;;5042162;28;20071;-77
2021/01/31 13:07:38;;;;;;;15.02;9.15;;;1.20;99.90;;;;;;5038244;28;20159;-78